createdAt,value
2022-09-30T00:00:56.249Z,7.47
2022-09-30T00:02:57.928Z,7.60
2022-09-30T00:04:59.432Z,6.63
2022-09-30T00:07:00.937Z,5.85
2022-09-30T00:09:03.611Z,5.68
2022-09-30T00:11:06.438Z,6.18
2022-09-30T00:13:07.922Z,7.57
2022-09-30T00:15:09.839Z,7.50
2022-09-30T00:17:11.406Z,6.45
2022-09-30T00:19:13.624Z,6.05
2022-09-30T00:21:16.068Z,7.78
2022-09-30T00:23:17.553Z,8.13
2022-09-30T00:25:19.031Z,7.20
2022-09-30T00:27:21.523Z,6.47
2022-09-30T00:29:23.007Z,8.15
2022-09-30T00:31:26.628Z,6.30
2022-09-30T00:33:28.327Z,6.13
2022-09-30T00:35:29.829Z,6.65
2022-09-30T00:37:31.323Z,6.10
2022-09-30T00:39:32.840Z,5.10
2022-09-30T00:41:35.087Z,5.63
2022-09-30T00:43:43.875Z,5.68
2022-09-30T00:45:51.732Z,5.95
2022-09-30T00:47:57.701Z,5.60
2022-09-30T00:50:03.924Z,5.88
2022-09-30T00:52:05.407Z,6.90
2022-09-30T00:54:11.015Z,6.20
2022-09-30T00:56:28.021Z,6.53
2022-09-30T00:58:52.158Z,6.68
2022-09-30T01:00:53.787Z,6.63
2022-09-30T01:02:55.519Z,5.97
2022-09-30T01:04:57.455Z,6.53
2022-09-30T01:07:01.755Z,5.75
2022-09-30T01:09:04.105Z,6.85
2022-09-30T01:11:08.316Z,4.50
2022-09-30T01:13:10.142Z,5.60
2022-09-30T01:15:12.418Z,6.05
2022-09-30T01:17:20.876Z,6.63
2022-09-30T01:19:34.058Z,5.75
2022-09-30T01:22:09.713Z,4.53
2022-09-30T01:24:29.484Z,5.45
2022-09-30T01:26:50.300Z,5.38
2022-09-30T01:29:28.794Z,5.75
2022-09-30T01:31:57.109Z,5.68
2022-09-30T01:34:07.893Z,5.57
2022-09-30T01:36:11.946Z,4.78
2022-09-30T01:38:21.894Z,5.28
2022-09-30T01:40:49.052Z,5.70
2022-09-30T01:43:00.149Z,6.68
2022-09-30T01:45:08.055Z,5.15
2022-09-30T01:47:17.559Z,6.00
2022-09-30T01:49:39.705Z,6.25
2022-09-30T01:51:57.589Z,5.50
2022-09-30T01:54:05.248Z,5.53
2022-09-30T01:56:23.201Z,5.82
2022-09-30T01:58:40.118Z,7.68
2022-09-30T02:00:44.021Z,6.43
2022-09-30T02:02:56.493Z,6.40
2022-09-30T02:05:01.352Z,5.95
2022-09-30T02:07:07.366Z,6.03
2022-09-30T02:09:17.396Z,5.07
2022-09-30T02:11:25.949Z,4.60
2022-09-30T02:13:37.364Z,5.65
2022-09-30T02:15:42.693Z,6.45
2022-09-30T02:17:48.097Z,6.30
2022-09-30T02:19:59.156Z,6.53
2022-09-30T02:22:06.101Z,6.25
2022-09-30T02:24:10.970Z,5.70
2022-09-30T02:26:18.246Z,5.15
2022-09-30T02:28:24.066Z,5.88
2022-09-30T02:30:25.596Z,6.18
2022-09-30T02:32:39.859Z,6.47
2022-09-30T02:34:45.810Z,6.43
2022-09-30T02:36:52.051Z,5.65
2022-09-30T02:39:16.588Z,6.72
2022-09-30T02:41:26.036Z,6.00
2022-09-30T02:43:27.751Z,5.93
2022-09-30T02:45:31.427Z,5.53
2022-09-30T02:47:58.234Z,6.22
2022-09-30T02:50:15.802Z,4.55
2022-09-30T02:52:28.007Z,5.45
2022-09-30T02:54:41.130Z,4.60
2022-09-30T02:56:50.615Z,5.05
2022-09-30T02:58:53.001Z,5.35
2022-09-30T03:00:54.800Z,5.18
2022-09-30T03:03:00.818Z,5.15
2022-09-30T03:05:03.459Z,5.05
2022-09-30T03:07:04.959Z,4.22
2022-09-30T03:09:06.616Z,5.30
2022-09-30T03:11:09.904Z,4.45
2022-09-30T03:13:48.769Z,3.97
2022-09-30T03:16:05.762Z,4.40
2022-09-30T03:18:45.627Z,4.88
2022-09-30T03:21:09.718Z,4.00
2022-09-30T03:23:27.363Z,3.20
2022-09-30T03:25:59.475Z,3.80
2022-09-30T03:28:19.221Z,3.17
2022-09-30T03:30:26.833Z,3.15
2022-09-30T03:33:03.848Z,2.72
2022-09-30T03:35:26.840Z,5.07
2022-09-30T03:37:34.298Z,2.90
2022-09-30T03:40:11.754Z,3.10
2022-09-30T03:42:22.625Z,3.45
2022-09-30T03:45:06.983Z,2.90
2022-09-30T03:47:13.232Z,3.10
2022-09-30T03:49:24.731Z,2.80
2022-09-30T03:51:26.501Z,2.30
2022-09-30T03:53:28.557Z,3.42
2022-09-30T03:55:31.635Z,3.42
2022-09-30T03:57:33.109Z,3.30
2022-09-30T03:59:34.645Z,3.30
2022-09-30T04:01:36.176Z,3.92
2022-09-30T04:03:37.760Z,3.08
2022-09-30T04:05:39.211Z,3.22
2022-09-30T04:07:40.692Z,3.38
2022-09-30T04:09:42.231Z,2.92
2022-09-30T04:11:43.798Z,2.60
2022-09-30T04:13:45.408Z,3.58
2022-09-30T04:15:55.120Z,4.82
2022-09-30T04:17:56.636Z,2.45
2022-09-30T04:19:58.371Z,2.53
2022-09-30T04:21:59.841Z,3.17
2022-09-30T04:24:01.616Z,2.85
2022-09-30T04:26:05.429Z,2.88
2022-09-30T04:28:06.891Z,3.22
2022-09-30T04:30:08.740Z,3.00
2022-09-30T04:32:10.232Z,3.60
2022-09-30T04:34:11.939Z,3.58
2022-09-30T04:36:13.441Z,2.60
2022-09-30T04:38:15.151Z,3.42
2022-09-30T04:40:17.199Z,3.25
2022-09-30T04:42:18.779Z,2.95
2022-09-30T04:44:20.839Z,9.30
2022-09-30T04:46:25.173Z,2.40
2022-09-30T04:48:28.826Z,2.83
2022-09-30T04:50:31.218Z,2.45
2022-09-30T04:52:32.777Z,2.30
2022-09-30T04:54:34.246Z,3.30
2022-09-30T04:56:35.704Z,2.70
2022-09-30T04:58:37.454Z,2.35
2022-09-30T05:00:39.501Z,2.30
2022-09-30T05:02:43.835Z,1.80
2022-09-30T05:04:45.580Z,2.20
2022-09-30T05:06:47.114Z,2.08
2022-09-30T05:08:48.681Z,2.03
2022-09-30T05:11:00.293Z,2.53
2022-09-30T05:13:01.797Z,2.10
2022-09-30T05:15:05.107Z,1.52
2022-09-30T05:17:06.554Z,2.25
2022-09-30T05:19:08.038Z,2.85
2022-09-30T05:21:10.161Z,3.17
2022-09-30T05:23:11.745Z,2.33
2022-09-30T05:25:13.183Z,4.85
2022-09-30T05:27:14.728Z,2.38
2022-09-30T05:29:16.322Z,2.58
2022-09-30T05:31:17.833Z,2.75
2022-09-30T05:33:19.380Z,2.60
2022-09-30T05:35:20.845Z,2.55
2022-09-30T05:37:22.390Z,2.97
2022-09-30T05:39:24.000Z,2.63
2022-09-30T05:41:25.517Z,2.63
2022-09-30T05:43:27.944Z,3.00
2022-09-30T05:45:29.416Z,2.60
2022-09-30T05:47:30.907Z,2.60
2022-09-30T05:49:34.511Z,2.78
2022-09-30T05:51:36.570Z,3.03
2022-09-30T05:53:38.827Z,3.70
2022-09-30T05:55:40.271Z,2.92
2022-09-30T05:57:42.562Z,3.22
2022-09-30T05:59:44.353Z,3.03
2022-09-30T06:01:46.100Z,2.67
2022-09-30T06:03:48.244Z,2.90
2022-09-30T06:05:56.343Z,3.28
2022-09-30T06:07:58.142Z,3.35
2022-09-30T06:09:59.649Z,3.25
2022-09-30T06:12:01.453Z,3.70
2022-09-30T06:14:02.971Z,3.05
2022-09-30T06:16:05.229Z,3.35
2022-09-30T06:18:07.995Z,5.50
2022-09-30T06:20:10.699Z,3.42
2022-09-30T06:22:12.174Z,3.75
2022-09-30T06:24:14.795Z,3.65
2022-09-30T06:26:16.479Z,3.47
2022-09-30T06:28:18.150Z,3.97
2022-09-30T06:30:19.866Z,3.55
2022-09-30T06:32:21.412Z,3.78
2022-09-30T06:34:23.698Z,3.72
2022-09-30T06:36:25.243Z,5.80
2022-09-30T06:38:28.732Z,4.45
2022-09-30T06:40:30.213Z,4.03
2022-09-30T06:42:31.949Z,5.00
2022-09-30T06:44:41.007Z,3.25
2022-09-30T06:46:53.919Z,3.60
2022-09-30T06:49:07.093Z,3.67
2022-09-30T06:51:10.889Z,8.07
2022-09-30T06:53:13.214Z,4.05
2022-09-30T06:55:14.728Z,3.38
2022-09-30T06:57:16.687Z,4.50
2022-09-30T06:59:18.361Z,5.78
2022-09-30T07:01:20.963Z,4.55
2022-09-30T07:03:26.033Z,3.90
2022-09-30T07:05:27.755Z,4.40
2022-09-30T07:07:29.650Z,5.00
2022-09-30T07:09:32.258Z,5.30
2022-09-30T07:11:34.362Z,4.68
2022-09-30T07:13:37.294Z,4.40
2022-09-30T07:15:39.072Z,4.13
2022-09-30T07:17:40.930Z,4.30
2022-09-30T07:19:42.580Z,4.93
2022-09-30T07:21:44.367Z,4.35
2022-09-30T07:23:49.502Z,9.25
2022-09-30T07:25:53.839Z,5.10
2022-09-30T07:27:56.444Z,4.85
2022-09-30T07:30:24.035Z,4.93
2022-09-30T07:32:21.824Z,4.38
2022-09-30T07:34:24.275Z,4.88
2022-09-30T07:36:34.193Z,4.63
2022-09-30T07:38:39.334Z,5.03
2022-09-30T07:40:42.352Z,6.00
2022-09-30T07:42:46.106Z,5.35
2022-09-30T07:44:49.360Z,6.65
2022-09-30T07:46:51.347Z,5.80
2022-09-30T07:48:56.621Z,6.18
2022-09-30T07:50:58.398Z,6.65
2022-09-30T07:53:00.093Z,7.32
2022-09-30T07:55:01.886Z,8.05
2022-09-30T07:57:12.078Z,10.52
2022-09-30T07:59:13.933Z,9.23
2022-09-30T08:01:16.706Z,6.53
2022-09-30T08:03:18.415Z,5.47
2022-09-30T08:05:20.012Z,4.45
2022-09-30T08:07:21.901Z,6.22
2022-09-30T08:09:25.276Z,5.28
2022-09-30T08:11:27.046Z,4.93
2022-09-30T08:13:29.101Z,4.60
2022-09-30T08:15:30.841Z,4.53
2022-09-30T08:17:32.523Z,4.38
2022-09-30T08:19:34.876Z,4.55
2022-09-30T08:21:36.626Z,5.28
2022-09-30T08:23:38.298Z,5.47
2022-09-30T08:25:40.033Z,4.78
2022-09-30T08:27:41.770Z,4.93
2022-09-30T08:30:04.675Z,3.80
2022-09-30T08:32:06.682Z,4.15
2022-09-30T08:34:08.783Z,3.83
2022-09-30T08:36:16.761Z,5.47
2022-09-30T08:38:18.420Z,5.47
2022-09-30T08:40:31.729Z,7.18
2022-09-30T08:42:57.616Z,5.53
2022-09-30T08:45:31.336Z,4.55
2022-09-30T08:47:42.428Z,3.67
2022-09-30T08:49:53.605Z,4.32
2022-09-30T08:51:55.462Z,4.25
2022-09-30T08:53:59.794Z,4.65
2022-09-30T08:56:03.001Z,5.38
2022-09-30T08:58:05.452Z,4.70
2022-09-30T09:00:11.287Z,5.50
2022-09-30T09:02:19.348Z,5.45
2022-09-30T09:04:21.205Z,5.68
2022-09-30T09:06:44.683Z,5.65
2022-09-30T09:09:16.521Z,5.45
2022-09-30T09:11:53.651Z,5.68
2022-09-30T09:14:03.174Z,5.80
2022-09-30T09:16:34.333Z,5.85
2022-09-30T09:18:44.054Z,33.90
2022-09-30T09:21:00.100Z,8.60
2022-09-30T09:23:03.630Z,6.35
2022-09-30T09:25:05.911Z,6.13
2022-09-30T09:27:16.590Z,5.57
2022-09-30T09:29:45.735Z,5.43
2022-09-30T09:31:48.397Z,4.53
2022-09-30T09:33:50.294Z,4.30
2022-09-30T09:36:27.564Z,3.85
2022-09-30T09:38:41.637Z,4.72
2022-09-30T09:41:07.347Z,4.47
2022-09-30T09:43:20.838Z,4.40
2022-09-30T09:45:57.270Z,4.18
2022-09-30T09:47:59.760Z,3.80
2022-09-30T09:50:04.773Z,3.65
2022-09-30T09:52:15.122Z,4.07
2022-09-30T09:54:21.757Z,3.83
2022-09-30T09:56:31.816Z,2.90
2022-09-30T09:58:34.325Z,4.00
2022-09-30T10:00:48.111Z,3.85
2022-09-30T10:03:01.535Z,3.35
2022-09-30T10:05:04.458Z,3.08
2022-09-30T10:07:15.281Z,4.20
2022-09-30T10:09:35.802Z,2.28
2022-09-30T10:11:37.402Z,2.45
2022-09-30T10:13:39.102Z,2.60
2022-09-30T10:15:42.617Z,2.13
2022-09-30T10:17:51.036Z,2.50
2022-09-30T10:19:59.217Z,1.90
2022-09-30T10:22:19.260Z,2.28
2022-09-30T10:24:30.267Z,2.50
2022-09-30T10:26:47.640Z,2.20
2022-09-30T10:28:52.309Z,2.50
2022-09-30T10:30:57.535Z,2.28
2022-09-30T10:32:59.541Z,2.28
2022-09-30T10:35:07.343Z,2.30
2022-09-30T10:37:13.917Z,1.80
2022-09-30T10:39:35.547Z,2.40
2022-09-30T10:41:38.212Z,2.20
2022-09-30T10:43:43.835Z,2.03
2022-09-30T10:46:01.325Z,2.25
2022-09-30T10:48:16.672Z,2.10
2022-09-30T10:50:21.703Z,1.90
2022-09-30T10:52:27.971Z,1.70
2022-09-30T10:54:55.967Z,1.58
2022-09-30T10:57:03.964Z,1.85
2022-09-30T10:59:16.668Z,1.90
2022-09-30T11:01:32.721Z,1.58
2022-09-30T11:03:52.496Z,1.13
2022-09-30T11:05:57.329Z,1.30
2022-09-30T11:07:59.018Z,1.58
2022-09-30T11:10:26.984Z,1.60
2022-09-30T11:12:35.705Z,1.15
2022-09-30T11:14:46.741Z,1.90
2022-09-30T11:17:03.933Z,1.65
2022-09-30T11:19:05.608Z,1.85
2022-09-30T11:21:13.452Z,1.50
2022-09-30T11:23:24.001Z,1.42
2022-09-30T11:25:46.004Z,1.90
2022-09-30T11:28:09.681Z,1.20
2022-09-30T11:30:25.236Z,1.40
2022-09-30T11:32:50.049Z,0.98
2022-09-30T11:35:36.509Z,1.00
2022-09-30T11:37:56.788Z,1.00
2022-09-30T11:40:16.888Z,1.20
2022-09-30T11:42:51.421Z,1.05
2022-09-30T11:45:00.506Z,1.17
2022-09-30T11:47:35.917Z,1.48
2022-09-30T11:50:18.481Z,1.23
2022-09-30T11:52:29.084Z,1.20
2022-09-30T11:54:36.606Z,1.00
2022-09-30T11:56:45.579Z,0.85
2022-09-30T11:58:52.958Z,0.98
2022-09-30T12:01:14.992Z,1.35
2022-09-30T12:03:25.059Z,1.10
2022-09-30T12:05:33.417Z,0.90
2022-09-30T12:07:42.626Z,1.00
2022-09-30T12:09:49.366Z,0.80
2022-09-30T12:11:57.684Z,1.10
2022-09-30T12:14:03.356Z,1.10
2022-09-30T12:16:11.867Z,0.80
2022-09-30T12:18:23.046Z,0.90
2022-09-30T12:20:30.621Z,0.75
2022-09-30T12:23:30.265Z,1.20
2022-09-30T12:25:38.690Z,0.80
2022-09-30T12:27:51.254Z,1.08
2022-09-30T12:30:18.142Z,1.00
2022-09-30T12:32:40.852Z,1.05
2022-09-30T12:35:02.103Z,1.05
2022-09-30T12:37:37.060Z,1.10
2022-09-30T12:39:50.654Z,1.17
2022-09-30T12:41:55.544Z,0.95
2022-09-30T12:44:19.877Z,0.98
2022-09-30T12:46:31.931Z,2.60
2022-09-30T12:48:38.068Z,0.82
2022-09-30T12:50:49.454Z,0.88
2022-09-30T12:52:51.175Z,1.00
2022-09-30T12:54:57.774Z,0.70
2022-09-30T12:57:04.637Z,0.85
2022-09-30T12:59:06.521Z,1.17
2022-09-30T13:01:15.146Z,0.70
2022-09-30T13:03:18.428Z,0.47
2022-09-30T13:05:31.980Z,0.60
2022-09-30T13:07:51.294Z,0.80
2022-09-30T13:10:42.525Z,0.75
2022-09-30T13:12:46.941Z,0.70
2022-09-30T13:14:48.659Z,0.90
2022-09-30T13:17:08.213Z,0.70
2022-09-30T13:19:20.887Z,0.73
2022-09-30T13:21:23.936Z,0.85
2022-09-30T13:23:44.907Z,0.70
2022-09-30T13:25:56.521Z,1.05
2022-09-30T13:28:21.080Z,0.70
2022-09-30T13:30:24.277Z,1.00
2022-09-30T13:32:34.664Z,0.70
2022-09-30T13:34:49.799Z,0.98
2022-09-30T13:36:51.411Z,1.05
2022-09-30T13:39:23.410Z,0.80
2022-09-30T13:41:26.074Z,0.82
2022-09-30T13:43:34.432Z,1.40
2022-09-30T13:45:39.604Z,1.30
2022-09-30T13:48:11.030Z,14.10
2022-09-30T13:50:19.838Z,12.27
2022-09-30T13:52:32.708Z,4.03
2022-09-30T13:54:37.739Z,2.00
2022-09-30T13:56:40.936Z,1.90
2022-09-30T13:59:07.848Z,0.77
2022-09-30T14:01:28.233Z,1.33
2022-09-30T14:03:48.678Z,1.15
2022-09-30T14:06:23.166Z,0.90
2022-09-30T14:08:33.780Z,0.85
2022-09-30T14:11:26.331Z,0.77
2022-09-30T14:14:05.415Z,0.98
2022-09-30T14:16:16.014Z,0.77
2022-09-30T14:18:38.319Z,1.10
2022-09-30T14:21:02.037Z,1.65
2022-09-30T14:23:04.195Z,1.00
2022-09-30T14:25:14.690Z,0.77
2022-09-30T14:27:31.191Z,0.70
2022-09-30T14:29:54.006Z,1.05
2022-09-30T14:31:56.287Z,0.98
2022-09-30T14:33:58.518Z,1.10
2022-09-30T14:36:03.456Z,0.70
2022-09-30T14:38:23.326Z,0.90
2022-09-30T14:40:36.098Z,1.10
2022-09-30T14:42:39.043Z,0.88
2022-09-30T14:44:40.648Z,0.90
2022-09-30T14:46:47.043Z,0.60
2022-09-30T14:48:50.703Z,0.73
2022-09-30T14:51:11.104Z,0.90
2022-09-30T14:53:57.820Z,0.90
2022-09-30T14:56:00.966Z,1.13
2022-09-30T14:58:21.574Z,1.10
2022-09-30T15:00:31.501Z,1.00
2022-09-30T15:02:33.179Z,1.02
2022-09-30T15:04:38.436Z,0.80
2022-09-30T15:06:43.858Z,0.65
2022-09-30T15:08:45.774Z,0.70
2022-09-30T15:10:53.305Z,0.70
2022-09-30T15:12:56.107Z,0.70
2022-09-30T15:14:59.437Z,0.80
2022-09-30T15:17:05.884Z,1.10
2022-09-30T15:19:18.669Z,0.88
2022-09-30T15:21:22.187Z,0.82
2022-09-30T15:23:32.514Z,1.40
2022-09-30T15:25:34.279Z,1.65
2022-09-30T15:27:37.030Z,0.90
2022-09-30T15:29:38.750Z,0.88
2022-09-30T15:31:46.595Z,1.20
2022-09-30T15:33:48.354Z,1.08
2022-09-30T15:35:50.902Z,0.90
2022-09-30T15:37:53.008Z,0.93
2022-09-30T15:40:13.224Z,0.82
2022-09-30T15:42:29.017Z,0.80
2022-09-30T15:44:38.944Z,1.23
2022-09-30T15:46:40.811Z,0.93
2022-09-30T15:48:44.908Z,0.88
2022-09-30T15:50:50.136Z,0.80
2022-09-30T15:52:52.384Z,0.90
2022-09-30T15:54:55.401Z,0.80
2022-09-30T15:56:57.360Z,0.90
2022-09-30T15:59:03.977Z,1.17
2022-09-30T16:01:14.402Z,0.98
2022-09-30T16:03:19.136Z,0.90
2022-09-30T16:05:20.812Z,1.10
2022-09-30T16:07:26.892Z,0.90
2022-09-30T16:09:34.895Z,1.35
2022-09-30T16:11:41.099Z,1.10
2022-09-30T16:13:43.553Z,0.95
2022-09-30T16:15:45.240Z,0.98
2022-09-30T16:17:49.066Z,0.85
2022-09-30T16:19:58.943Z,1.10
2022-09-30T16:22:00.825Z,0.90
2022-09-30T16:24:02.547Z,0.80
2022-09-30T16:26:16.044Z,1.08
2022-09-30T16:28:17.713Z,0.90
2022-09-30T16:30:20.257Z,1.13
2022-09-30T16:32:22.682Z,0.85
2022-09-30T16:34:29.190Z,1.00
2022-09-30T16:36:32.939Z,0.98
2022-09-30T16:38:34.908Z,0.90
2022-09-30T16:40:37.993Z,1.15
2022-09-30T16:42:39.713Z,0.82
2022-09-30T16:44:43.984Z,1.20
2022-09-30T16:46:45.618Z,1.00
2022-09-30T16:48:47.267Z,1.08
2022-09-30T16:50:54.615Z,1.33
2022-09-30T16:52:56.589Z,0.85
2022-09-30T16:54:58.436Z,0.90
2022-09-30T16:57:00.985Z,1.23
2022-09-30T16:59:03.360Z,1.80
2022-09-30T17:01:05.229Z,2.20
2022-09-30T17:03:07.122Z,2.88
2022-09-30T17:05:13.888Z,3.83
2022-09-30T17:07:15.557Z,3.05
2022-09-30T17:09:17.500Z,1.60
2022-09-30T17:11:19.882Z,1.50
2022-09-30T17:13:21.553Z,3.10
2022-09-30T17:15:23.488Z,2.25
2022-09-30T17:17:25.137Z,3.50
2022-09-30T17:19:30.160Z,2.60
2022-09-30T17:21:31.994Z,1.88
2022-09-30T17:23:33.648Z,3.63
2022-09-30T17:25:38.023Z,2.85
2022-09-30T17:27:39.703Z,3.40
2022-09-30T17:29:42.314Z,2.63
2022-09-30T17:31:44.072Z,2.47
2022-09-30T17:33:46.025Z,4.47
2022-09-30T17:35:59.422Z,4.75
2022-09-30T17:38:01.311Z,3.92
2022-09-30T17:40:27.143Z,2.55
2022-09-30T17:42:47.594Z,2.10
2022-09-30T17:44:49.191Z,1.92
2022-09-30T17:47:00.342Z,2.45
2022-09-30T17:49:02.039Z,2.35
2022-09-30T17:51:03.773Z,1.85
2022-09-30T17:53:06.084Z,1.25
2022-09-30T17:55:07.956Z,1.77
2022-09-30T17:57:09.654Z,1.60
2022-09-30T17:59:11.275Z,1.67
2022-09-30T18:01:13.233Z,1.90
2022-09-30T18:03:15.158Z,1.52
2022-09-30T18:05:17.174Z,1.80
2022-09-30T18:07:21.067Z,1.15
2022-09-30T18:09:23.254Z,1.90
2022-09-30T18:11:26.668Z,1.85
2022-09-30T18:13:28.729Z,2.30
2022-09-30T18:15:30.375Z,2.85
2022-09-30T18:17:32.079Z,1.55
2022-09-30T18:19:35.572Z,2.50
2022-09-30T18:21:37.715Z,2.80
2022-09-30T18:23:39.460Z,3.17
2022-09-30T18:25:43.921Z,3.40
2022-09-30T18:27:46.956Z,3.63
2022-09-30T18:29:49.374Z,3.20
2022-09-30T18:31:51.564Z,3.35
2022-09-30T18:33:53.237Z,3.55
2022-09-30T18:35:56.875Z,2.45
2022-09-30T18:37:58.581Z,2.17
2022-09-30T18:40:00.243Z,1.67
2022-09-30T18:42:03.309Z,1.73
2022-09-30T18:44:05.073Z,1.75
2022-09-30T18:46:08.981Z,1.90
2022-09-30T18:48:11.141Z,2.20
2022-09-30T18:50:14.135Z,2.03
2022-09-30T18:52:17.095Z,3.20
2022-09-30T18:54:18.686Z,2.80
2022-09-30T18:56:21.822Z,2.60
2022-09-30T18:58:23.656Z,1.70
2022-09-30T19:00:25.456Z,2.22
2022-09-30T19:02:28.066Z,2.53
2022-09-30T19:04:29.757Z,2.58
2022-09-30T19:06:31.984Z,2.22
2022-09-30T19:08:34.305Z,1.88
2022-09-30T19:10:40.312Z,2.40
2022-09-30T19:12:44.743Z,2.45
2022-09-30T19:14:47.937Z,1.95
2022-09-30T19:16:51.269Z,2.08
2022-09-30T19:18:54.624Z,2.35
2022-09-30T19:20:56.187Z,2.20
2022-09-30T19:22:57.752Z,2.92
2022-09-30T19:24:59.436Z,1.85
2022-09-30T19:27:01.024Z,2.83
2022-09-30T19:29:03.803Z,2.90
2022-09-30T19:31:09.732Z,2.75
2022-09-30T19:33:11.388Z,2.47
2022-09-30T19:35:14.224Z,3.15
2022-09-30T19:37:26.033Z,3.95
2022-09-30T19:39:39.686Z,6.55
2022-09-30T19:41:46.346Z,7.88
2022-09-30T19:43:51.065Z,8.90
2022-09-30T19:46:11.644Z,10.18
2022-09-30T19:48:13.274Z,8.88
2022-09-30T19:50:14.910Z,7.57
2022-09-30T19:52:22.297Z,6.70
2022-09-30T19:54:36.773Z,5.25
2022-09-30T19:56:41.574Z,4.50
2022-09-30T19:58:45.144Z,3.15
2022-09-30T20:00:53.594Z,2.67
2022-09-30T20:02:56.278Z,2.67
2022-09-30T20:05:00.489Z,2.53
2022-09-30T20:07:02.278Z,2.72
2022-09-30T20:09:06.563Z,2.50
2022-09-30T20:11:13.277Z,3.22
2022-09-30T20:13:14.871Z,4.28
2022-09-30T20:15:34.953Z,4.03
2022-09-30T20:17:36.588Z,3.55
2022-09-30T20:19:38.330Z,3.30
2022-09-30T20:21:41.973Z,3.30
2022-09-30T20:23:45.806Z,4.07
2022-09-30T20:25:47.444Z,3.38
2022-09-30T20:27:52.436Z,3.05
2022-09-30T20:29:54.422Z,3.70
2022-09-30T20:31:56.153Z,3.38
2022-09-30T20:33:59.185Z,3.97
2022-09-30T20:36:01.545Z,3.85
2022-09-30T20:38:03.722Z,4.43
2022-09-30T20:40:06.105Z,4.18
2022-09-30T20:42:07.778Z,4.43
2022-09-30T20:44:14.193Z,5.32
2022-09-30T20:46:15.845Z,4.60
2022-09-30T20:48:17.522Z,4.43
2022-09-30T20:50:35.010Z,4.65
2022-09-30T20:52:36.917Z,3.33
2022-09-30T20:54:38.542Z,3.13
2022-09-30T20:57:05.653Z,2.40
2022-09-30T20:59:02.328Z,2.85
2022-09-30T21:01:06.605Z,3.00
2022-09-30T21:03:10.228Z,2.63
2022-09-30T21:05:11.816Z,3.15
2022-09-30T21:07:13.407Z,2.88
2022-09-30T21:09:15.681Z,2.38
2022-09-30T21:11:18.760Z,2.97
2022-09-30T21:13:20.668Z,2.70
2022-09-30T21:15:22.284Z,3.28
2022-09-30T21:17:24.028Z,3.55
2022-09-30T21:19:25.701Z,2.65
2022-09-30T21:21:27.444Z,3.15
2022-09-30T21:23:31.635Z,3.10
2022-09-30T21:25:33.311Z,3.45
2022-09-30T21:27:35.198Z,3.45
2022-09-30T21:29:36.892Z,3.45
2022-09-30T21:31:39.369Z,3.33
2022-09-30T21:33:42.473Z,3.65
2022-09-30T21:35:44.222Z,3.97
2022-09-30T21:37:48.616Z,3.67
2022-09-30T21:39:50.323Z,3.92
2022-09-30T21:41:52.082Z,3.40
2022-09-30T21:43:53.696Z,3.50
2022-09-30T21:46:03.252Z,3.80
2022-09-30T21:48:06.470Z,4.07
2022-09-30T21:50:08.591Z,3.78
2022-09-30T21:52:10.957Z,2.83
2022-09-30T21:54:14.111Z,2.58
2022-09-30T21:56:15.740Z,3.05
2022-09-30T21:58:17.373Z,3.45
2022-09-30T22:00:19.118Z,2.47
2022-09-30T22:02:20.746Z,3.05
2022-09-30T22:04:22.567Z,3.80
2022-09-30T22:06:24.497Z,4.28
2022-09-30T22:08:26.630Z,4.32
2022-09-30T22:10:28.229Z,5.75
2022-09-30T22:12:32.002Z,7.63
2022-09-30T22:14:33.638Z,8.80
2022-09-30T22:16:35.438Z,8.13
2022-09-30T22:18:37.310Z,7.22
2022-09-30T22:20:39.034Z,5.60
2022-09-30T22:22:40.805Z,6.13
2022-09-30T22:24:42.430Z,3.75
2022-09-30T22:26:45.736Z,3.05
2022-09-30T22:28:49.027Z,3.03
2022-09-30T22:30:50.595Z,3.30
2022-09-30T22:33:12.171Z,2.95
2022-09-30T22:35:32.793Z,3.08
2022-09-30T22:37:53.340Z,2.47
2022-09-30T22:39:59.953Z,4.40
2022-09-30T22:42:03.193Z,5.20
2022-09-30T22:44:05.435Z,6.38
2022-09-30T22:46:08.785Z,7.22
2022-09-30T22:48:10.546Z,7.55
2022-09-30T22:50:12.502Z,7.00
2022-09-30T22:52:14.575Z,9.20
2022-09-30T22:54:16.179Z,8.52
2022-09-30T22:56:17.884Z,8.80
2022-09-30T22:58:20.768Z,8.90
2022-09-30T23:00:22.386Z,7.80
2022-09-30T23:02:24.207Z,8.30
2022-09-30T23:04:26.878Z,8.70
2022-09-30T23:06:28.548Z,9.20
2022-09-30T23:08:31.495Z,8.05
2022-09-30T23:10:33.209Z,7.40
2022-09-30T23:12:35.225Z,7.40
2022-09-30T23:14:38.635Z,6.18
2022-09-30T23:16:41.147Z,6.35
2022-09-30T23:18:46.409Z,5.25
2022-09-30T23:20:58.755Z,4.90
2022-09-30T23:23:00.359Z,5.63
2022-09-30T23:25:02.668Z,4.93
2022-09-30T23:27:04.394Z,5.10
2022-09-30T23:29:07.956Z,4.95
2022-09-30T23:31:12.273Z,5.50
2022-09-30T23:33:13.902Z,4.85
2022-09-30T23:35:15.613Z,4.63
2022-09-30T23:37:17.226Z,4.43
2022-09-30T23:39:19.601Z,5.30
2022-09-30T23:41:21.626Z,4.13
2022-09-30T23:43:23.212Z,4.53
2022-09-30T23:45:24.933Z,4.30
2022-09-30T23:47:27.506Z,4.22
2022-09-30T23:49:32.464Z,5.10
2022-09-30T23:51:34.669Z,5.00
2022-09-30T23:53:36.639Z,5.10
2022-09-30T23:55:38.881Z,4.97
2022-09-30T23:57:40.537Z,4.45
2022-09-30T23:59:42.280Z,6.05
